createdAt,value
2023-04-04T00:00:25.458Z,2.45
2023-04-04T00:02:52.166Z,2.83
2023-04-04T00:05:18.938Z,3.10
2023-04-04T00:07:48.719Z,2.78
2023-04-04T00:10:16.514Z,2.65
2023-04-04T00:12:43.861Z,2.75
2023-04-04T00:15:11.144Z,3.03
2023-04-04T00:17:38.096Z,3.53
2023-04-04T00:20:05.244Z,2.97
2023-04-04T00:22:32.116Z,2.65
2023-04-04T00:24:59.126Z,3.25
2023-04-04T00:27:26.289Z,3.10
2023-04-04T00:29:53.325Z,2.83
2023-04-04T00:32:20.298Z,2.83
2023-04-04T00:34:51.656Z,2.67
2023-04-04T00:37:18.407Z,3.47
2023-04-04T00:39:45.063Z,2.97
2023-04-04T00:42:11.956Z,3.45
2023-04-04T00:44:38.735Z,2.92
2023-04-04T00:47:05.471Z,2.85
2023-04-04T00:49:33.706Z,3.40
2023-04-04T00:52:00.395Z,3.00
2023-04-04T00:54:27.053Z,3.42
2023-04-04T00:56:55.658Z,3.53
2023-04-04T00:59:23.788Z,3.47
2023-04-04T01:01:51.096Z,2.92
2023-04-04T01:04:17.915Z,3.22
2023-04-04T01:06:45.785Z,3.08
2023-04-04T01:09:12.933Z,2.67
2023-04-04T01:11:39.959Z,3.45
2023-04-04T01:14:06.753Z,3.70
2023-04-04T01:16:33.546Z,3.00
2023-04-04T01:19:00.494Z,3.58
2023-04-04T01:21:28.310Z,3.13
2023-04-04T01:24:04.730Z,3.58
2023-04-04T01:26:31.885Z,3.40
2023-04-04T01:28:59.540Z,2.78
2023-04-04T01:31:32.654Z,3.60
2023-04-04T01:34:14.302Z,3.30
2023-04-04T01:37:01.954Z,4.60
2023-04-04T01:39:35.583Z,3.17
2023-04-04T01:42:03.349Z,3.13
2023-04-04T01:44:30.130Z,2.42
2023-04-04T01:46:56.773Z,2.97
2023-04-04T01:49:23.878Z,3.22
2023-04-04T01:51:52.320Z,2.40
2023-04-04T01:54:19.298Z,2.80
2023-04-04T01:56:46.624Z,2.97
2023-04-04T01:59:13.306Z,3.22
2023-04-04T02:01:40.042Z,3.60
2023-04-04T02:04:07.418Z,3.33
2023-04-04T02:06:34.138Z,3.30
2023-04-04T02:09:01.122Z,3.10
2023-04-04T02:11:28.043Z,3.50
2023-04-04T02:13:54.701Z,2.88
2023-04-04T02:16:21.565Z,3.70
2023-04-04T02:18:48.393Z,3.58
2023-04-04T02:21:15.201Z,3.38
2023-04-04T02:23:42.601Z,2.85
2023-04-04T02:26:09.199Z,3.60
2023-04-04T02:28:36.008Z,3.63
2023-04-04T02:31:03.033Z,3.33
2023-04-04T02:33:30.483Z,3.30
2023-04-04T02:35:59.024Z,3.60
2023-04-04T02:38:26.436Z,3.50
2023-04-04T02:40:53.384Z,4.07
2023-04-04T02:43:20.276Z,3.30
2023-04-04T02:45:50.300Z,3.10
2023-04-04T02:48:16.970Z,3.85
2023-04-04T02:50:43.920Z,3.40
2023-04-04T02:53:10.775Z,3.63
2023-04-04T02:55:37.414Z,2.83
2023-04-04T02:58:04.186Z,3.60
2023-04-04T03:00:31.259Z,3.67
2023-04-04T03:02:58.359Z,4.25
2023-04-04T03:05:26.757Z,3.33
2023-04-04T03:07:56.305Z,3.33
2023-04-04T03:10:23.932Z,3.40
2023-04-04T03:12:50.908Z,2.80
2023-04-04T03:15:17.639Z,3.55
2023-04-04T03:17:44.992Z,3.70
2023-04-04T03:20:13.588Z,3.55
2023-04-04T03:22:40.522Z,4.38
2023-04-04T03:25:07.567Z,4.18
2023-04-04T03:27:34.768Z,3.67
2023-04-04T03:30:02.307Z,3.58
2023-04-04T03:32:29.046Z,3.72
2023-04-04T03:34:55.763Z,4.55
2023-04-04T03:37:22.894Z,3.85
2023-04-04T03:39:49.559Z,3.80
2023-04-04T03:42:16.785Z,4.53
2023-04-04T03:44:43.395Z,4.32
2023-04-04T03:47:10.204Z,3.78
2023-04-04T03:49:36.865Z,3.90
2023-04-04T03:52:04.069Z,4.10
2023-04-04T03:54:30.825Z,4.13
2023-04-04T03:56:57.924Z,3.53
2023-04-04T03:59:24.827Z,4.00
2023-04-04T04:01:52.469Z,3.83
2023-04-04T04:04:19.202Z,3.95
2023-04-04T04:06:45.923Z,3.40
2023-04-04T04:09:12.707Z,3.95
2023-04-04T04:11:39.327Z,4.38
2023-04-04T04:14:06.015Z,4.43
2023-04-04T04:16:35.330Z,4.35
2023-04-04T04:19:02.289Z,4.40
2023-04-04T04:21:28.919Z,3.45
2023-04-04T04:23:55.582Z,3.60
2023-04-04T04:26:22.373Z,3.70
2023-04-04T04:28:49.126Z,3.25
2023-04-04T04:31:16.099Z,3.45
2023-04-04T04:33:42.713Z,3.55
2023-04-04T04:36:09.497Z,3.97
2023-04-04T04:38:36.648Z,3.72
2023-04-04T04:41:03.354Z,3.78
2023-04-04T04:43:30.033Z,3.70
2023-04-04T04:45:56.748Z,4.50
2023-04-04T04:48:23.481Z,4.07
2023-04-04T04:50:50.463Z,4.55
2023-04-04T04:53:17.055Z,3.53
2023-04-04T04:55:43.699Z,4.53
2023-04-04T04:58:11.006Z,4.57
2023-04-04T05:00:38.414Z,4.63
2023-04-04T05:03:08.425Z,4.45
2023-04-04T05:05:35.314Z,3.78
2023-04-04T05:08:02.780Z,4.40
2023-04-04T05:10:32.666Z,4.57
2023-04-04T05:12:59.300Z,4.28
2023-04-04T05:15:29.130Z,4.80
2023-04-04T05:17:55.865Z,4.00
2023-04-04T05:20:23.323Z,4.25
2023-04-04T05:22:51.512Z,4.35
2023-04-04T05:25:18.402Z,4.85
2023-04-04T05:27:49.069Z,4.45
2023-04-04T05:30:16.937Z,3.83
2023-04-04T05:32:45.639Z,4.03
2023-04-04T05:35:12.935Z,5.00
2023-04-04T05:37:40.673Z,4.43
2023-04-04T05:40:08.216Z,5.07
2023-04-04T05:42:35.182Z,5.20
2023-04-04T05:45:04.644Z,4.75
2023-04-04T05:47:31.377Z,4.40
2023-04-04T05:49:58.036Z,4.35
2023-04-04T05:52:25.340Z,6.13
2023-04-04T05:54:52.011Z,5.13
2023-04-04T05:57:18.637Z,5.65
2023-04-04T05:59:45.324Z,5.80
2023-04-04T06:02:12.353Z,4.65
2023-04-04T06:04:41.012Z,6.05
2023-04-04T06:07:07.840Z,5.65
2023-04-04T06:09:36.156Z,5.47
2023-04-04T06:12:04.736Z,6.68
2023-04-04T06:14:31.454Z,5.57
2023-04-04T06:16:58.736Z,6.35
2023-04-04T06:19:25.377Z,6.43
2023-04-04T06:21:51.999Z,6.55
2023-04-04T06:24:21.978Z,5.60
2023-04-04T06:26:51.547Z,6.20
2023-04-04T06:29:18.503Z,6.90
2023-04-04T06:31:45.802Z,5.82
2023-04-04T06:34:12.524Z,6.72
2023-04-04T06:36:39.207Z,7.40
2023-04-04T06:39:06.289Z,6.70
2023-04-04T06:41:32.930Z,6.25
2023-04-04T06:44:00.369Z,7.07
2023-04-04T06:46:27.587Z,6.80
2023-04-04T06:48:54.866Z,6.90
2023-04-04T06:51:21.759Z,6.18
2023-04-04T06:53:48.797Z,6.22
2023-04-04T06:56:15.947Z,6.38
2023-04-04T06:58:43.128Z,7.00
2023-04-04T07:01:09.792Z,7.05
2023-04-04T07:03:36.491Z,6.68
2023-04-04T07:06:04.470Z,6.90
2023-04-04T07:08:36.284Z,7.30
2023-04-04T07:11:04.521Z,6.25
2023-04-04T07:13:31.151Z,6.70
2023-04-04T07:15:57.726Z,6.78
2023-04-04T07:18:24.422Z,7.55
2023-04-04T07:20:51.224Z,7.13
2023-04-04T07:23:17.903Z,7.45
2023-04-04T07:25:44.865Z,6.68
2023-04-04T07:28:13.490Z,7.30
2023-04-04T07:30:40.704Z,5.85
2023-04-04T07:33:07.624Z,7.13
2023-04-04T07:35:35.217Z,6.53
2023-04-04T07:38:02.915Z,6.97
2023-04-04T07:40:29.716Z,6.20
2023-04-04T07:42:56.313Z,5.95
2023-04-04T07:45:23.185Z,7.63
2023-04-04T07:47:49.872Z,6.60
2023-04-04T07:50:16.925Z,6.82
2023-04-04T07:52:49.834Z,5.20
2023-04-04T07:55:16.893Z,5.03
2023-04-04T07:57:44.670Z,4.60
2023-04-04T08:00:11.981Z,4.32
2023-04-04T08:02:39.512Z,4.57
2023-04-04T08:05:06.926Z,4.72
2023-04-04T08:07:33.654Z,3.53
2023-04-04T08:10:00.462Z,4.90
2023-04-04T08:12:27.125Z,3.72
2023-04-04T08:14:53.825Z,4.53
2023-04-04T08:17:21.036Z,2.70
2023-04-04T08:19:47.709Z,3.92
2023-04-04T08:22:14.391Z,4.38
2023-04-04T08:24:41.227Z,4.07
2023-04-04T08:27:08.003Z,3.08
2023-04-04T08:29:34.833Z,4.20
2023-04-04T08:32:01.461Z,3.78
2023-04-04T08:34:28.632Z,3.42
2023-04-04T08:36:55.976Z,3.40
2023-04-04T08:39:22.730Z,3.35
2023-04-04T08:41:57.638Z,2.70
2023-04-04T08:44:26.115Z,3.70
2023-04-04T08:46:54.181Z,2.72
2023-04-04T08:49:23.581Z,2.65
2023-04-04T08:51:52.331Z,2.63
2023-04-04T08:54:20.899Z,2.60
2023-04-04T08:56:48.166Z,2.88
2023-04-04T08:59:18.953Z,2.05
2023-04-04T09:01:48.693Z,2.13
2023-04-04T09:04:16.179Z,2.65
2023-04-04T09:06:42.996Z,3.55
2023-04-04T09:09:10.002Z,2.45
2023-04-04T09:11:38.309Z,2.40
2023-04-04T09:14:05.081Z,2.60
2023-04-04T09:16:32.034Z,2.80
2023-04-04T09:18:58.783Z,2.63
2023-04-04T09:21:26.304Z,3.17
2023-04-04T09:24:03.118Z,2.55
2023-04-04T09:26:46.615Z,3.38
2023-04-04T09:29:13.909Z,2.83
2023-04-04T09:31:42.380Z,2.63
2023-04-04T09:34:09.023Z,2.72
2023-04-04T09:36:35.763Z,2.08
2023-04-04T09:39:03.664Z,1.80
2023-04-04T09:41:30.449Z,2.67
2023-04-04T09:43:58.304Z,4.00
2023-04-04T09:46:27.069Z,2.60
2023-04-04T09:48:55.440Z,2.92
2023-04-04T09:51:22.088Z,2.00
2023-04-04T09:53:48.968Z,2.67
2023-04-04T09:56:15.725Z,2.45
2023-04-04T09:59:02.761Z,2.70
2023-04-04T10:01:30.931Z,3.47
2023-04-04T10:03:58.306Z,2.25
2023-04-04T10:06:25.495Z,2.33
2023-04-04T10:08:52.721Z,2.45
2023-04-04T10:11:33.908Z,3.40
2023-04-04T10:14:03.601Z,3.00
2023-04-04T10:16:37.108Z,2.70
2023-04-04T10:19:07.742Z,3.22
2023-04-04T10:21:35.134Z,3.25
2023-04-04T10:24:08.731Z,3.65
2023-04-04T10:26:35.516Z,2.75
2023-04-04T10:29:03.675Z,2.97
2023-04-04T10:31:33.271Z,2.97
2023-04-04T10:34:12.381Z,3.10
2023-04-04T10:36:45.904Z,2.70
2023-04-04T10:39:25.069Z,1.95
2023-04-04T10:41:53.251Z,3.33
2023-04-04T10:44:39.990Z,2.40
2023-04-04T10:47:16.186Z,3.60
2023-04-04T10:49:45.825Z,2.95
2023-04-04T10:52:15.340Z,2.40
2023-04-04T10:54:43.918Z,3.33
2023-04-04T10:57:12.707Z,2.40
2023-04-04T11:00:10.479Z,3.05
2023-04-04T11:02:52.482Z,3.30
2023-04-04T11:05:30.480Z,2.80
2023-04-04T11:10:30.772Z,2.75
2023-04-04T11:13:12.821Z,2.80
2023-04-04T11:16:00.982Z,3.13
2023-04-04T11:18:42.787Z,3.63
2023-04-04T11:21:13.775Z,3.40
2023-04-04T11:23:49.715Z,3.83
2023-04-04T11:26:35.248Z,3.97
2023-04-04T11:29:08.578Z,4.07
2023-04-04T11:31:40.352Z,2.20
2023-04-04T11:34:12.696Z,3.58
2023-04-04T11:36:40.292Z,3.42
2023-04-04T11:39:15.550Z,3.45
2023-04-04T11:42:06.751Z,3.30
2023-04-04T11:44:42.976Z,3.00
2023-04-04T11:47:13.624Z,3.78
2023-04-04T11:49:44.805Z,2.65
2023-04-04T11:52:14.322Z,2.90
2023-04-04T11:54:45.232Z,4.13
2023-04-04T11:57:16.229Z,3.63
2023-04-04T11:59:48.446Z,4.57
2023-04-04T12:02:27.411Z,3.95
2023-04-04T12:04:55.337Z,3.42
2023-04-04T12:07:24.732Z,3.28
2023-04-04T12:09:56.370Z,2.67
2023-04-04T12:12:24.694Z,4.72
2023-04-04T12:17:20.201Z,3.33
2023-04-04T12:19:47.109Z,2.53
2023-04-04T12:22:14.016Z,3.80
2023-04-04T12:24:41.235Z,3.92
2023-04-04T12:27:15.514Z,3.63
2023-04-04T12:29:45.491Z,2.33
2023-04-04T12:32:14.265Z,2.58
2023-04-04T12:34:49.888Z,4.05
2023-04-04T12:37:19.438Z,4.22
2023-04-04T12:39:50.625Z,3.35
2023-04-04T12:42:24.759Z,3.40
2023-04-04T12:44:53.774Z,4.43
2023-04-04T12:47:22.464Z,3.40
2023-04-04T12:49:49.852Z,4.13
2023-04-04T12:52:20.494Z,4.63
2023-04-04T12:54:50.973Z,4.43
2023-04-04T12:57:25.528Z,3.40
2023-04-04T12:59:54.532Z,4.28
2023-04-04T13:02:22.944Z,3.05
2023-04-04T13:04:55.913Z,3.22
2023-04-04T13:07:27.799Z,3.97
2023-04-04T13:09:57.820Z,4.60
2023-04-04T13:12:25.049Z,4.13
2023-04-04T13:15:04.980Z,4.15
2023-04-04T13:17:44.659Z,3.90
2023-04-04T13:20:13.458Z,3.03
2023-04-04T13:22:41.318Z,3.67
2023-04-04T13:25:09.515Z,4.13
2023-04-04T13:27:37.463Z,4.43
2023-04-04T13:30:06.257Z,3.05
2023-04-04T13:32:33.667Z,4.00
2023-04-04T13:35:00.350Z,4.25
2023-04-04T13:37:28.187Z,3.67
2023-04-04T13:39:54.919Z,2.75
2023-04-04T13:42:23.274Z,4.15
2023-04-04T13:44:49.952Z,3.72
2023-04-04T13:47:16.947Z,5.97
2023-04-04T13:49:43.626Z,4.47
2023-04-04T13:52:10.585Z,3.60
2023-04-04T13:54:37.208Z,3.80
2023-04-04T13:57:03.871Z,4.88
2023-04-04T13:59:30.652Z,3.83
2023-04-04T14:01:57.718Z,3.35
2023-04-04T14:04:24.577Z,4.85
2023-04-04T14:07:00.239Z,4.70
2023-04-04T14:09:26.970Z,5.53
2023-04-04T14:11:53.583Z,4.00
2023-04-04T14:14:20.479Z,5.57
2023-04-04T14:16:47.276Z,4.57
2023-04-04T14:19:13.986Z,5.35
2023-04-04T14:21:40.614Z,4.10
2023-04-04T14:24:07.411Z,4.22
2023-04-04T14:26:35.082Z,3.65
2023-04-04T14:29:01.806Z,4.85
2023-04-04T14:31:28.835Z,4.57
2023-04-04T14:33:55.596Z,3.70
2023-04-04T14:36:24.391Z,3.75
2023-04-04T14:38:50.994Z,4.90
2023-04-04T14:41:17.769Z,3.40
2023-04-04T14:43:44.944Z,4.40
2023-04-04T14:46:11.836Z,4.80
2023-04-04T14:48:38.790Z,4.07
2023-04-04T14:51:05.614Z,4.22
2023-04-04T14:53:34.487Z,4.07
2023-04-04T14:56:01.108Z,4.32
2023-04-04T14:58:27.785Z,4.25
2023-04-04T15:00:54.815Z,3.60
2023-04-04T15:03:21.794Z,3.80
2023-04-04T15:05:49.311Z,3.40
2023-04-04T15:08:15.969Z,4.03
2023-04-04T15:10:42.933Z,4.15
2023-04-04T15:13:09.880Z,3.13
2023-04-04T15:15:36.496Z,3.50
2023-04-04T15:18:03.261Z,4.28
2023-04-04T15:20:30.011Z,4.00
2023-04-04T15:22:56.601Z,4.20
2023-04-04T15:25:23.376Z,4.65
2023-04-04T15:27:50.001Z,4.57
2023-04-04T15:30:16.673Z,3.65
2023-04-04T15:32:43.297Z,3.42
2023-04-04T15:35:20.831Z,4.20
2023-04-04T15:37:49.156Z,2.78
2023-04-04T15:40:16.810Z,4.28
2023-04-04T15:42:44.133Z,4.90
2023-04-04T15:45:12.140Z,4.65
2023-04-04T15:47:39.488Z,3.03
2023-04-04T15:50:07.186Z,4.47
2023-04-04T15:52:34.046Z,4.25
2023-04-04T15:55:01.010Z,4.65
2023-04-04T15:57:27.657Z,4.10
2023-04-04T15:59:54.239Z,4.72
2023-04-04T16:02:20.899Z,4.50
2023-04-04T16:04:47.506Z,5.32
2023-04-04T16:07:14.192Z,3.50
2023-04-04T16:09:40.851Z,3.65
2023-04-04T16:12:07.639Z,4.25
2023-04-04T16:14:34.326Z,4.63
2023-04-04T16:17:06.369Z,5.05
2023-04-04T16:19:34.048Z,3.47
2023-04-04T16:22:00.728Z,4.47
2023-04-04T16:24:27.891Z,4.60
2023-04-04T16:26:54.597Z,4.45
2023-04-04T16:29:21.607Z,4.35
2023-04-04T16:31:48.467Z,4.22
2023-04-04T16:34:15.521Z,4.57
2023-04-04T16:36:42.194Z,4.03
2023-04-04T16:39:08.907Z,5.03
2023-04-04T16:41:35.634Z,4.32
2023-04-04T16:44:02.283Z,4.57
2023-04-04T16:46:28.959Z,5.63
2023-04-04T16:48:55.668Z,3.97
2023-04-04T16:51:25.465Z,5.00
2023-04-04T16:53:52.047Z,5.18
2023-04-04T16:56:18.756Z,4.50
2023-04-04T16:58:45.780Z,4.95
2023-04-04T17:01:16.655Z,5.22
2023-04-04T17:03:43.464Z,4.97
2023-04-04T17:06:10.601Z,5.50
2023-04-04T17:08:37.269Z,4.70
2023-04-04T17:11:04.169Z,5.35
2023-04-04T17:13:31.373Z,3.88
2023-04-04T17:15:58.266Z,5.38
2023-04-04T17:18:25.000Z,4.65
2023-04-04T17:20:52.253Z,5.28
2023-04-04T17:23:18.885Z,5.00
2023-04-04T17:25:45.515Z,4.22
2023-04-04T17:28:12.125Z,5.05
2023-04-04T17:30:39.041Z,4.97
2023-04-04T17:33:06.015Z,5.38
2023-04-04T17:35:32.693Z,4.65
2023-04-04T17:37:59.311Z,4.25
2023-04-04T17:40:25.907Z,4.55
2023-04-04T17:42:52.535Z,4.88
2023-04-04T17:45:19.396Z,5.10
2023-04-04T17:47:46.203Z,4.20
2023-04-04T17:50:13.027Z,4.85
2023-04-04T17:52:39.776Z,4.65
2023-04-04T17:55:08.675Z,4.68
2023-04-04T17:57:35.922Z,4.15
2023-04-04T18:00:03.467Z,5.00
2023-04-04T18:02:30.115Z,4.53
2023-04-04T18:04:58.425Z,4.75
2023-04-04T18:07:25.918Z,4.80
2023-04-04T18:09:52.539Z,4.25
2023-04-04T18:12:19.225Z,5.32
2023-04-04T18:14:45.946Z,4.85
2023-04-04T18:17:13.194Z,4.63
2023-04-04T18:19:41.422Z,5.07
2023-04-04T18:22:08.411Z,4.95
2023-04-04T18:24:35.102Z,5.18
2023-04-04T18:27:01.872Z,5.32
2023-04-04T18:29:31.030Z,6.82
2023-04-04T18:32:01.256Z,5.40
2023-04-04T18:34:28.017Z,4.78
2023-04-04T18:36:54.641Z,4.95
2023-04-04T18:39:21.235Z,5.55
2023-04-04T18:41:48.029Z,4.85
2023-04-04T18:44:14.988Z,5.53
2023-04-04T18:46:42.278Z,5.22
2023-04-04T18:49:09.062Z,5.57
2023-04-04T18:51:35.724Z,5.43
2023-04-04T18:54:03.474Z,5.88
2023-04-04T18:56:30.146Z,5.70
2023-04-04T18:58:56.869Z,4.88
2023-04-04T19:01:24.368Z,4.97
2023-04-04T19:03:53.764Z,5.50
2023-04-04T19:06:26.628Z,5.65
2023-04-04T19:08:57.418Z,5.18
2023-04-04T19:11:24.544Z,5.95
2023-04-04T19:13:51.170Z,4.93
2023-04-04T19:16:18.827Z,5.57
2023-04-04T19:18:45.647Z,5.70
2023-04-04T19:21:12.218Z,6.03
2023-04-04T19:23:38.971Z,6.68
2023-04-04T19:26:06.590Z,5.45
2023-04-04T19:28:33.320Z,5.88
2023-04-04T19:31:01.772Z,6.10
2023-04-04T19:33:32.448Z,6.10
2023-04-04T19:36:11.717Z,6.93
2023-04-04T19:38:40.078Z,6.25
2023-04-04T19:41:18.992Z,6.40
2023-04-04T19:43:47.123Z,6.15
2023-04-04T19:46:28.935Z,5.90
2023-04-04T19:48:57.306Z,6.65
2023-04-04T19:51:23.947Z,6.40
2023-04-04T19:53:53.552Z,7.10
2023-04-04T19:56:23.098Z,6.40
2023-04-04T19:59:10.849Z,5.78
2023-04-04T20:01:44.593Z,6.35
2023-04-04T20:04:14.123Z,6.15
2023-04-04T20:06:42.396Z,6.22
2023-04-04T20:09:34.439Z,6.32
2023-04-04T20:12:01.203Z,6.15
2023-04-04T20:14:28.745Z,7.55
2023-04-04T20:16:55.406Z,6.32
2023-04-04T20:19:26.170Z,6.57
2023-04-04T20:21:52.951Z,6.90
2023-04-04T20:24:21.023Z,8.07
2023-04-04T20:26:55.344Z,6.53
2023-04-04T20:29:30.338Z,7.40
2023-04-04T20:32:08.376Z,6.43
2023-04-04T20:34:39.264Z,6.50
2023-04-04T20:37:25.922Z,7.53
2023-04-04T20:40:09.286Z,7.07
2023-04-04T20:42:40.724Z,5.63
2023-04-04T20:45:10.255Z,6.63
2023-04-04T20:47:46.782Z,7.40
2023-04-04T20:50:17.024Z,8.00
2023-04-04T20:52:52.849Z,6.57
2023-04-04T20:55:20.916Z,6.93
2023-04-04T20:57:47.826Z,7.55
2023-04-04T21:00:29.754Z,6.18
2023-04-04T21:03:00.255Z,6.93
2023-04-04T21:05:29.207Z,7.38
2023-04-04T21:07:56.279Z,7.97
2023-04-04T21:10:28.995Z,7.65
2023-04-04T21:12:56.695Z,7.57
2023-04-04T21:15:28.563Z,7.05
2023-04-04T21:18:00.124Z,7.88
2023-04-04T21:20:45.862Z,6.82
2023-04-04T21:23:27.512Z,7.47
2023-04-04T21:26:02.173Z,6.60
2023-04-04T21:30:56.615Z,9.40
2023-04-04T21:33:23.283Z,8.25
2023-04-04T21:35:52.485Z,6.88
2023-04-04T21:38:29.771Z,6.68
2023-04-04T21:41:00.393Z,7.40
2023-04-04T21:43:27.881Z,8.35
2023-04-04T21:45:57.858Z,8.32
2023-04-04T21:48:24.859Z,7.47
2023-04-04T21:50:51.693Z,6.97
2023-04-04T21:53:18.549Z,6.60
2023-04-04T21:55:45.434Z,7.85
2023-04-04T21:58:12.840Z,7.07
2023-04-04T22:00:39.850Z,7.18
2023-04-04T22:03:07.239Z,7.70
2023-04-04T22:05:38.904Z,6.90
2023-04-04T22:08:06.530Z,7.93
2023-04-04T22:10:33.460Z,7.05
2023-04-04T22:13:00.183Z,8.70
2023-04-04T22:15:29.755Z,8.43
2023-04-04T22:18:03.672Z,8.25
2023-04-04T22:20:32.102Z,6.88
2023-04-04T22:22:59.445Z,7.80
2023-04-04T22:25:27.216Z,7.85
2023-04-04T22:27:53.980Z,7.50
2023-04-04T22:30:21.636Z,8.73
2023-04-04T22:32:48.692Z,7.47
2023-04-04T22:35:15.387Z,8.38
2023-04-04T22:37:42.021Z,8.77
2023-04-04T22:40:13.182Z,9.43
2023-04-04T22:42:39.762Z,9.65
2023-04-04T22:45:07.123Z,9.23
2023-04-04T22:47:34.048Z,9.05
2023-04-04T22:50:04.752Z,10.18
2023-04-04T22:52:32.025Z,9.10
2023-04-04T22:54:59.768Z,9.18
2023-04-04T22:57:26.450Z,8.98
2023-04-04T22:59:53.031Z,9.98
2023-04-04T23:02:19.621Z,10.25
2023-04-04T23:04:47.412Z,9.90
2023-04-04T23:07:14.290Z,9.90
2023-04-04T23:09:41.363Z,9.68
2023-04-04T23:12:08.154Z,8.32
2023-04-04T23:14:38.889Z,11.68
2023-04-04T23:17:07.035Z,10.73
2023-04-04T23:19:33.936Z,8.45
2023-04-04T23:22:00.718Z,9.20
2023-04-04T23:24:27.690Z,9.27
2023-04-04T23:26:54.351Z,8.50
2023-04-04T23:29:21.059Z,8.75
2023-04-04T23:31:48.014Z,9.38
2023-04-04T23:34:14.917Z,8.75
2023-04-04T23:36:41.640Z,9.13
2023-04-04T23:39:08.301Z,9.23
2023-04-04T23:41:34.961Z,8.15
2023-04-04T23:44:01.605Z,8.25
2023-04-04T23:46:30.548Z,8.13
2023-04-04T23:48:57.246Z,8.45
2023-04-04T23:51:25.617Z,7.78
2023-04-04T23:53:52.650Z,8.65
2023-04-04T23:56:19.369Z,9.07
2023-04-04T23:58:46.120Z,7.57
